Airfield :
LOGIN :

Register | Disclaimer

   EN    FR    IT 

 










Legend :    VFR   Marginal VFR   IFR   Intensive IFR   Very Intensive IFR
Visi :
Ceiling :
>= 8 km
>= 3000ft
5 to 8 km
1000 to 3000 ft
1500m to 5 km
500 to 1000 ft
800 to 1500m
200 to 500 ft
< 800m
< 200 ft
Symbols :   Thunderstorms  Fog  Heavy snow  Heavy precipitations  Wind > 20 kt
SIGMETs :     Misc.  Thunderstorms  Icing  Turbulence  Mountain Waves  Volcanic Ashes






- Airport Elevation : 289 ft
- IATA code : ZAD


LDZD - Zadar

CURRENT METAR :
  • 150030Z 12006KT 080V160 9999 FEW060 11/10 Q1009

EXPIRED METARs :
  • 150000Z 12006KT 080V150 9999 FEW060 11/09 Q1009
  • 142330Z 12006KT 9999 FEW060 11/09 Q1009
  • 142300Z 13008KT 9999 FEW060 12/09 Q1009
  • 142230Z 13007KT 100V170 9999 FEW035 SCT070 12/10 Q1009
  • 142200Z 12007KT 9999 FEW035 SCT070 12/10 Q1009

TAF TAF LDZD
Valid from the 15 at 00:00 until the 16 at 00:00 UTC


142325Z 1500/1600 12010KT 9999 SCT030 BKN070 TX17/1516Z TN10/1504Z
PROB30
TEMPO 1504/1510 12015G30KT
BECMG 1510/1512 13025KT
PROB30
TEMPO 1510/1522 13025G40KT
PROB40
TEMPO 1522/1600 25015G25KT 4000 TSRA FEW025CB BKN030



MET'MAP, your aeronautical weather chart ! - Copyright ORBIFLY December 2007 - Disclaimer

ORBIFLY MET'MAP TEAM :

Programming & Development : Alexandra Zaïnal
Concept & Development : Baudouin d'Aumeries
Co-Development & Prog : Marc-Olivier Méhu
Technical & hardware support : Manuel Goepfert

Contact : metmap@orbifly.com




SOURCES & CREDITS :

   NOAA